Terminal Aerodrome Forecast
Issued by NWS

Home | Current Version | Previous Version | Text Only | Print | Product List | Glossary On
Versions: 1 2 3 4 5 6 7 8 9 10 11 12 13 14 15 16 17 18 19 20 21 22 23 24 25
353
FTUS43 KPAH 160928 AAB
TAFCGI
TAF AMD
KCGI 160928Z 1609/1706 33002KT 3SM BR BKN250
     FM161200 35004KT P6SM BKN250
     FM161500 01006KT P6SM BKN250
     FM162300 VRB03KT P6SM SCT250=

USA.gov is the U.S. government's official web portal to all federal, state and local government web resources and services.